Culleoka, Tennessee
Current Conditions -  °F | °C
As of 5:15 AM on Thursday 18 Dec 2014 (Local Time) from KSYI Reporting Station
Overcast Overcast  
Wind Chill: 34°   Ceiling: 7000
Heat Index: 34°   Visibility: 8mi
Dew Point: 32°   Wind: 0mph
Humidity: 93%   Direction: NA
Pressure: 30.23"   Gusts: NA
Location:  35.48°N, 86.98°W
Report Text: KSYI 181115Z AUTO 00000KT 8SM FEW039 SCT050 OVC070 01/00 A3023 RMK
Loading
Personal Weather Stations






























Interactive Weather Map New forecast layout! Learn more

10-Day Weather Forecast

Advertisements
Track Severe Weather on mobile